LFKB

Bastia-Poretta Airport

Bastia/Poretta, France
TAF LFKB 171400Z 1715/1815 04010KT 9999 FEW030CB TX30/1812Z TN21/1804Z TEMPO 1715/1717 TS SCT030CB BKN080 PROB30 TEMPO 1715/1717 VRB15KT 4000 TSRA SCT015CB BKN025 BECMG 1717/1719 22006KT CAVOK BECMG 1810/1812 04010KT FEW030CB
Issued Valid From Valid To
Aug-17 @ 14:00 UTC
(57 minutes ago)
Aug-17 @ 15:00 UTC
(in 3 minutes)
Aug-18 @ 15:00 UTC
(in 24 hours)
Aug-17 @ 15:00 to Aug-17 @ 17:00
TAF LFKB 171400Z 1715/1815 04010KT 9999 FEW030CB TX30/1812Z TN21/1804Z
Wind Visibility Clouds
40° at 10 knots 10,000+ meters
  • Few at 3,000' AGL
Temporary Aug-17 @ 15:00 to Aug-17 @ 17:00
TEMPO 1715/1717 TS SCT030CB BKN080
Clouds Conditions
  • Scattered at 3,000' AGL
  • Broken at 8,000' AGL
  • Thunderstorm
Temporary  (Probability 30%) Aug-17 @ 15:00 to Aug-17 @ 17:00
PROB30 TEMPO 1715/1717 VRB15KT 4000 TSRA SCT015CB BKN025
Wind Visibility Clouds Conditions
Variable at 15 knots 4,007 meters
  • Scattered at 1,500' AGL
  • Broken at 2,500' AGL
  • Thunderstorm
  • Rain
Becoming Aug-17 @ 17:00 to Aug-18 @ 10:00
BECMG 1717/1719 22006KT CAVOK
Wind Visibility Clouds Conditions
220° at 6 knots 10,000+ meters
  • No significant clouds
Becoming Aug-18 @ 10:00 to Aug-18 @ 15:00
BECMG 1810/1812 04010KT FEW030CB
Wind Visibility Clouds Conditions
40° at 10 knots 10,000+ meters
  • Few at 3,000' AGL
TAF LFKB 171400Z 1715/1815 04010KT 9999 FEW030CB TX30/1812Z TN21/1804Z TEMPO 1715/1717 TS SCT030CB BKN080 PROB30 TEMPO 1715/1717 VRB15KT 4000 TSRA SCT015CB BKN025 BECMG 1717/1719 22006KT CAVOK BECMG 1810/1812 04010KT FEW030CB
Issued Aug-17 @ 14:00 UTC
(57 minutes ago)
Valid From Aug-17 @ 15:00 UTC
(in 3 minutes)
Valid To Aug-18 @ 15:00 UTC
(in 24 hours)
Aug-17 @ 15:00 - Aug-17 @ 17:00
Wind Visibility
40° at 10 knots 10,000+ meters
Clouds
  • Few at 3,000' AGL
Temporary Aug-17 @ 15:00 - Aug-17 @ 17:00
Clouds
  • Scattered at 3,000' AGL
  • Broken at 8,000' AGL
Conditions
  • Thunderstorm
Probability 30% Temporary Aug-17 @ 15:00 - Aug-17 @ 17:00
Wind Visibility
Variable at 15 knots 4,007 meters
Clouds
  • Scattered at 1,500' AGL
  • Broken at 2,500' AGL
Conditions
  • Thunderstorm
  • Rain
Becoming Aug-17 @ 17:00 - Aug-18 @ 10:00
Wind Visibility
220° at 6 knots 10,000+ meters
Clouds
  • No significant clouds
Conditions
Becoming Aug-18 @ 10:00 - Aug-18 @ 15:00
Wind Visibility
40° at 10 knots 10,000+ meters
Clouds
  • Few at 3,000' AGL
Conditions